Time;durP1;ratioP1;P1;durP2;ratioP2;P2;SDS_P1;SDS_P2;PMS_P1;PMS_P2;Temp;Humidity;BMP_temperature;BMP_pressure;BME280_temperature;BME280_humidity;BME280_pressure;Samples;Min_cycle;Max_cycle;Signal;HPM_P1;HPM_P2
2024/01/22 00:00:01;;;;;;;11.80;11.40;;;5.30;99.90;;;;;;5074198;28;20678;-63
2024/01/22 00:02:28;;;;;;;11.10;10.70;;;5.20;99.90;;;;;;5071196;28;20207;-63
2024/01/22 00:04:54;;;;;;;12.77;12.27;;;5.20;99.90;;;;;;5069897;28;20226;-62
2024/01/22 00:07:22;;;;;;;11.20;10.80;;;5.10;99.90;;;;;;5067885;28;20211;-64
2024/01/22 00:09:49;;;;;;;11.90;11.40;;;5.10;99.90;;;;;;5068788;28;20207;-64
2024/01/22 00:12:16;;;;;;;11.23;10.83;;;5.00;99.90;;;;;;5067328;28;20203;-64
2024/01/22 00:14:42;;;;;;;11.97;11.57;;;4.90;99.90;;;;;;5070218;28;20238;-63
2024/01/22 00:17:09;;;;;;;12.10;11.70;;;4.90;99.90;;;;;;5077545;28;20299;-63
2024/01/22 00:19:36;;;;;;;11.70;11.30;;;4.90;99.90;;;;;;5076770;28;20203;-64
2024/01/22 00:22:03;;;;;;;12.23;11.77;;;4.80;99.90;;;;;;5075664;28;20214;-63
2024/01/22 00:24:31;;;;;;;11.20;10.80;;;4.80;99.90;;;;;;5077805;28;20322;-62
2024/01/22 00:26:58;;;;;;;11.77;11.38;;;4.80;99.90;;;;;;5077442;28;20207;-64
2024/01/22 00:29:24;;;;;;;11.93;11.50;;;4.90;99.90;;;;;;5071980;28;20361;-62
2024/01/22 00:31:51;;;;;;;12.23;11.73;;;4.80;99.90;;;;;;5077001;28;20206;-63
2024/01/22 00:34:18;;;;;;;11.80;11.40;;;4.90;99.90;;;;;;5071916;28;20548;-64
2024/01/22 00:36:45;;;;;;;11.27;10.87;;;4.90;99.90;;;;;;5071461;28;20211;-64
2024/01/22 00:39:12;;;;;;;11.97;11.57;;;4.90;99.90;;;;;;5067277;28;20208;-62
2024/01/22 00:41:40;;;;;;;11.80;11.40;;;4.90;99.90;;;;;;5071680;28;20199;-63
2024/01/22 00:44:07;;;;;;;11.80;11.40;;;5.00;99.90;;;;;;5069885;28;20701;-62
2024/01/22 00:46:33;;;;;;;11.43;11.03;;;5.00;99.90;;;;;;5069643;28;20222;-63
2024/01/22 00:49:00;;;;;;;14.00;13.40;;;5.10;99.90;;;;;;5067172;28;20203;-63
2024/01/22 00:51:27;;;;;;;11.60;11.20;;;5.10;99.90;;;;;;5067492;28;20205;-63
2024/01/22 00:53:54;;;;;;;12.00;11.60;;;5.20;99.90;;;;;;5067311;28;20226;-64
2024/01/22 00:56:20;;;;;;;11.77;11.37;;;5.20;99.90;;;;;;5070419;28;20231;-62
2024/01/22 00:58:48;;;;;;;11.50;11.10;;;5.20;99.90;;;;;;5072237;28;20653;-63
2024/01/22 01:01:15;;;;;;;11.70;11.30;;;5.20;99.90;;;;;;5068285;28;20204;-63
2024/01/22 01:03:42;;;;;;;11.23;10.83;;;5.10;99.90;;;;;;5071172;28;20210;-65
2024/01/22 01:06:09;;;;;;;11.80;11.30;;;5.00;99.90;;;;;;5078231;28;20224;-64
2024/01/22 01:08:35;;;;;;;11.40;11.00;;;5.00;99.90;;;;;;5080444;28;20203;-63
2024/01/22 01:11:02;;;;;;;11.60;11.20;;;4.90;99.90;;;;;;5065953;28;20203;-63
2024/01/22 01:13:29;;;;;;;12.10;11.70;;;4.90;99.90;;;;;;5068102;28;20207;-62
2024/01/22 01:15:57;;;;;;;11.50;11.10;;;5.00;99.90;;;;;;5068624;28;20231;-64
2024/01/22 01:18:24;;;;;;;11.60;11.20;;;5.10;99.90;;;;;;5067103;28;20590;-63
2024/01/22 01:20:50;;;;;;;11.30;10.90;;;5.10;99.90;;;;;;5067340;28;21039;-64
2024/01/22 01:23:17;;;;;;;11.40;11.00;;;5.20;99.90;;;;;;5066868;28;20204;-63
2024/01/22 01:25:44;;;;;;;11.60;11.20;;;5.10;99.90;;;;;;5068027;28;20215;-64
2024/01/22 01:28:11;;;;;;;11.73;11.33;;;5.00;99.90;;;;;;5067872;28;20207;-62
2024/01/22 01:30:37;;;;;;;11.00;10.60;;;5.00;99.90;;;;;;5066079;28;20208;-64
2024/01/22 01:33:06;;;;;;;11.47;11.07;;;4.90;99.90;;;;;;5066148;28;20203;-64
2024/01/22 01:35:33;;;;;;;11.30;10.90;;;4.80;99.90;;;;;;5068162;28;20227;-64
2024/01/22 01:37:59;;;;;;;11.40;11.00;;;4.80;99.90;;;;;;5068716;28;20681;-63
2024/01/22 01:40:26;;;;;;;11.40;11.00;;;4.80;99.90;;;;;;5064236;28;20206;-62
2024/01/22 01:42:54;;;;;;;11.63;11.20;;;4.80;99.90;;;;;;5069508;28;20563;-63
2024/01/22 01:45:21;;;;;;;10.87;10.47;;;4.80;99.90;;;;;;5067902;28;20222;-63
2024/01/22 01:47:49;;;;;;;11.30;10.90;;;4.90;99.90;;;;;;5066911;28;20200;-63
2024/01/22 01:50:18;;;;;;;11.20;10.80;;;4.90;99.90;;;;;;5067092;28;20219;-62
2024/01/22 01:52:46;;;;;;;11.30;10.90;;;4.90;99.90;;;;;;5071949;28;20207;-63
2024/01/22 01:55:13;;;;;;;11.43;11.03;;;5.00;99.90;;;;;;5071482;28;20230;-62
2024/01/22 01:57:40;;;;;;;11.40;11.00;;;5.00;99.90;;;;;;5071354;28;20199;-63
2024/01/22 02:00:10;;;;;;;11.50;11.10;;;5.00;99.90;;;;;;5074468;28;20199;-63
2024/01/22 02:02:38;;;;;;;10.90;10.50;;;5.00;99.90;;;;;;5084769;28;20208;-62
2024/01/22 02:05:06;;;;;;;11.03;10.63;;;5.00;99.90;;;;;;5084937;28;20261;-64
2024/01/22 02:07:34;;;;;;;11.50;11.10;;;4.90;99.90;;;;;;5084483;28;20207;-63
2024/01/22 02:10:01;;;;;;;11.40;11.00;;;4.90;99.90;;;;;;5081266;28;20207;-63
2024/01/22 02:12:27;;;;;;;11.10;10.70;;;4.80;99.90;;;;;;5071267;28;20203;-63
2024/01/22 02:14:54;;;;;;;11.40;11.00;;;4.80;99.90;;;;;;5070906;28;20226;-64
2024/01/22 02:17:21;;;;;;;11.20;10.80;;;4.80;99.90;;;;;;5071527;28;20440;-64
2024/01/22 02:19:49;;;;;;;11.10;10.70;;;4.70;99.90;;;;;;5072439;28;20199;-64
2024/01/22 02:22:16;;;;;;;11.40;11.00;;;4.70;99.90;;;;;;5071108;28;20725;-64
2024/01/22 02:24:44;;;;;;;11.20;10.80;;;4.80;99.90;;;;;;5070636;28;20231;-64
2024/01/22 02:27:11;;;;;;;11.47;11.07;;;4.80;99.90;;;;;;5070372;28;20222;-63
2024/01/22 02:29:38;;;;;;;11.33;10.93;;;4.80;99.90;;;;;;5070430;28;20207;-62
2024/01/22 02:32:05;;;;;;;11.50;11.10;;;4.80;99.90;;;;;;5070971;28;20210;-63
2024/01/22 02:34:31;;;;;;;11.37;10.97;;;4.80;99.90;;;;;;5071616;28;20227;-62
2024/01/22 02:36:58;;;;;;;10.97;10.57;;;4.80;99.90;;;;;;5070291;28;20702;-64
2024/01/22 02:39:25;;;;;;;11.60;11.20;;;4.90;99.90;;;;;;5075031;28;20207;-63
2024/01/22 02:41:53;;;;;;;11.17;10.77;;;4.80;99.90;;;;;;5074379;28;20200;-62
2024/01/22 02:44:20;;;;;;;11.37;10.97;;;4.70;99.90;;;;;;5071340;28;20689;-62
2024/01/22 02:46:47;;;;;;;16.43;15.63;;;4.70;99.90;;;;;;5069436;28;20207;-62
2024/01/22 02:49:14;;;;;;;11.10;10.70;;;4.60;99.90;;;;;;5070258;28;20658;-63
2024/01/22 02:51:43;;;;;;;11.20;10.80;;;4.70;99.90;;;;;;5071819;28;20649;-63
2024/01/22 02:54:12;;;;;;;11.17;10.77;;;4.80;99.90;;;;;;5070700;28;20204;-63
2024/01/22 02:56:38;;;;;;;10.50;10.10;;;4.80;99.90;;;;;;5071882;28;20230;-62
2024/01/22 02:59:07;;;;;;;13.60;13.03;;;4.80;99.90;;;;;;5070590;28;20195;-64
2024/01/22 03:01:33;;;;;;;11.23;10.83;;;4.80;99.90;;;;;;5072047;28;20203;-64
2024/01/22 03:04:00;;;;;;;11.47;11.07;;;4.70;99.90;;;;;;5071597;28;20210;-64
2024/01/22 03:06:27;;;;;;;11.20;10.80;;;4.60;99.90;;;;;;5072390;28;20215;-63
2024/01/22 03:08:54;;;;;;;12.03;11.57;;;4.60;99.90;;;;;;5079801;28;20203;-63
2024/01/22 03:11:20;;;;;;;11.97;11.57;;;4.60;99.90;;;;;;5078326;28;20203;-63
2024/01/22 03:13:47;;;;;;;11.47;11.07;;;4.70;99.90;;;;;;5072107;28;20207;-63
2024/01/22 03:16:15;;;;;;;12.10;11.70;;;4.80;99.90;;;;;;5071115;28;20223;-63
2024/01/22 03:18:42;;;;;;;11.73;11.33;;;4.90;99.90;;;;;;5072032;28;20760;-62
2024/01/22 03:21:08;;;;;;;12.25;11.85;;;5.10;99.90;;;;;;5070432;28;20200;-63
2024/01/22 03:23:35;;;;;;;11.53;11.13;;;5.20;99.90;;;;;;5071151;28;20203;-63
2024/01/22 03:26:02;;;;;;;11.60;11.20;;;5.20;99.90;;;;;;5071188;28;20233;-62
2024/01/22 03:28:29;;;;;;;11.53;11.13;;;5.20;99.90;;;;;;5071045;28;20209;-62
2024/01/22 03:30:56;;;;;;;11.60;11.20;;;5.10;99.90;;;;;;5070284;28;20207;-62
2024/01/22 03:33:24;;;;;;;11.37;10.97;;;5.10;99.90;;;;;;5070349;28;20643;-64
2024/01/22 03:35:50;;;;;;;11.53;11.13;;;5.20;99.90;;;;;;5067267;28;20609;-62
2024/01/22 03:38:17;;;;;;;10.80;10.40;;;5.20;99.90;;;;;;5070490;28;20388;-62
2024/01/22 03:40:44;;;;;;;11.17;10.77;;;5.40;99.90;;;;;;5069753;28;20195;-64
2024/01/22 03:43:11;;;;;;;11.63;11.23;;;5.50;99.90;;;;;;5070779;28;20218;-62
2024/01/22 03:45:37;;;;;;;11.50;11.10;;;5.50;99.90;;;;;;5070289;28;20234;-63
2024/01/22 03:48:04;;;;;;;11.33;10.93;;;5.60;99.90;;;;;;5070510;28;20199;-62
2024/01/22 03:50:32;;;;;;;11.00;10.60;;;5.70;99.90;;;;;;5069176;28;20207;-61
2024/01/22 03:52:59;;;;;;;11.20;10.80;;;5.70;99.90;;;;;;5070407;28;20207;-62
2024/01/22 03:55:26;;;;;;;10.80;10.40;;;5.70;99.90;;;;;;5070154;28;20227;-62
2024/01/22 03:57:53;;;;;;;11.03;10.63;;;5.70;99.90;;;;;;5070237;28;20204;-63
2024/01/22 04:00:20;;;;;;;11.80;11.40;;;5.80;99.90;;;;;;5068996;28;20530;-62
2024/01/22 04:02:50;;;;;;;11.40;11.00;;;5.80;99.90;;;;;;5070205;28;20195;-63
2024/01/22 04:05:16;;;;;;;11.00;10.60;;;5.80;99.90;;;;;;5067172;28;20293;-63
2024/01/22 04:07:44;;;;;;;11.23;10.83;;;6.00;99.90;;;;;;5069250;28;20552;-63
2024/01/22 04:10:11;;;;;;;11.00;10.60;;;6.00;99.90;;;;;;5069422;28;20211;-62
2024/01/22 04:12:40;;;;;;;11.03;10.63;;;6.00;99.90;;;;;;5066353;28;20202;-64
2024/01/22 04:15:07;;;;;;;11.57;11.17;;;6.00;99.90;;;;;;5069758;28;20770;-63
2024/01/22 04:17:34;;;;;;;11.70;11.30;;;6.10;99.90;;;;;;5069603;28;20230;-64
2024/01/22 04:20:01;;;;;;;11.20;10.80;;;6.20;99.90;;;;;;5069774;28;20286;-63
2024/01/22 04:22:27;;;;;;;11.40;11.00;;;6.20;99.90;;;;;;5071547;28;20203;-63
2024/01/22 04:24:55;;;;;;;11.43;11.03;;;6.30;99.90;;;;;;5067990;28;20227;-63
2024/01/22 04:27:22;;;;;;;11.33;10.93;;;6.30;99.90;;;;;;5067716;28;20215;-62
2024/01/22 04:29:49;;;;;;;11.43;11.03;;;6.40;99.90;;;;;;5069724;28;20222;-64
2024/01/22 04:32:15;;;;;;;10.97;10.57;;;6.50;99.90;;;;;;5065644;28;20199;-63
2024/01/22 04:34:42;;;;;;;11.00;10.60;;;6.60;99.90;;;;;;5069868;28;20223;-65
2024/01/22 04:37:09;;;;;;;12.00;11.60;;;6.70;99.90;;;;;;5066378;28;20219;-62
2024/01/22 04:39:36;;;;;;;11.63;11.23;;;6.80;99.90;;;;;;5069367;28;20245;-63
2024/01/22 04:42:04;;;;;;;11.20;10.80;;;6.80;99.90;;;;;;5070017;28;20570;-64
2024/01/22 04:44:31;;;;;;;11.50;11.10;;;6.80;99.90;;;;;;5064848;28;20219;-63
2024/01/22 04:46:59;;;;;;;12.27;11.87;;;6.90;99.90;;;;;;5068712;28;20733;-63
2024/01/22 04:49:25;;;;;;;11.17;10.77;;;7.20;99.90;;;;;;5069033;28;20627;-63
2024/01/22 04:51:52;;;;;;;11.60;11.20;;;7.30;99.90;;;;;;5069778;28;20570;-64
2024/01/22 04:54:20;;;;;;;11.50;11.10;;;7.40;99.90;;;;;;5070401;28;20203;-63
2024/01/22 04:56:48;;;;;;;11.97;11.57;;;7.40;99.90;;;;;;5068429;28;21090;-63
2024/01/22 04:59:16;;;;;;;11.73;11.33;;;7.40;99.90;;;;;;5060383;28;20204;-63
2024/01/22 05:01:43;;;;;;;11.93;11.53;;;7.60;99.90;;;;;;5057167;28;20202;-62
2024/01/22 05:04:09;;;;;;;11.33;10.93;;;7.60;99.90;;;;;;5067430;28;20199;-63
2024/01/22 05:06:36;;;;;;;11.27;10.87;;;7.70;99.90;;;;;;5066068;28;20200;-65
2024/01/22 05:09:04;;;;;;;13.03;12.53;;;7.70;99.90;;;;;;5074028;28;20218;-66
2024/01/22 05:11:30;;;;;;;11.20;10.80;;;7.80;99.90;;;;;;5070309;28;20206;-63
2024/01/22 05:13:58;;;;;;;11.50;11.10;;;7.80;99.90;;;;;;5069720;28;20210;-64
2024/01/22 05:16:26;;;;;;;11.70;11.30;;;7.70;99.90;;;;;;5068135;28;20226;-63
2024/01/22 05:18:53;;;;;;;11.57;11.17;;;7.70;99.90;;;;;;5063958;28;20214;-63
2024/01/22 05:21:21;;;;;;;11.53;11.13;;;7.80;99.90;;;;;;5062330;28;20212;-64
2024/01/22 05:23:48;;;;;;;11.47;11.07;;;7.80;99.90;;;;;;5064082;28;20915;-64
2024/01/22 05:26:15;;;;;;;11.80;11.40;;;7.80;99.90;;;;;;5068528;28;20211;-63
2024/01/22 05:28:42;;;;;;;11.60;11.20;;;7.80;99.90;;;;;;5070256;28;20200;-63
2024/01/22 05:31:09;;;;;;;12.17;11.77;;;7.70;99.90;;;;;;5069481;28;20203;-63
2024/01/22 05:33:37;;;;;;;12.03;11.63;;;7.70;99.90;;;;;;5068356;28;20212;-62
2024/01/22 05:36:04;;;;;;;11.83;11.43;;;7.70;99.90;;;;;;5073152;28;20355;-64
2024/01/22 05:38:31;;;;;;;11.90;11.50;;;7.70;99.90;;;;;;5067287;28;20204;-62
2024/01/22 05:40:58;;;;;;;11.57;11.17;;;7.80;99.90;;;;;;5070021;28;20203;-62
2024/01/22 05:43:25;;;;;;;11.60;11.20;;;7.80;99.90;;;;;;5065728;28;20684;-63
2024/01/22 05:45:51;;;;;;;11.63;11.23;;;7.80;99.90;;;;;;5068231;28;20223;-64
2024/01/22 05:48:18;;;;;;;11.60;11.20;;;7.80;99.90;;;;;;5070011;28;20203;-63
2024/01/22 05:50:46;;;;;;;12.10;11.70;;;7.80;99.90;;;;;;5072168;28;20218;-62
2024/01/22 05:53:13;;;;;;;12.37;11.97;;;7.80;99.90;;;;;;5069249;28;20230;-63
2024/01/22 05:55:40;;;;;;;12.27;11.87;;;8.00;99.90;;;;;;5067750;28;20234;-64
2024/01/22 05:58:06;;;;;;;12.60;12.20;;;8.10;99.90;;;;;;5068963;28;20222;-62
2024/01/22 06:00:33;;;;;;;13.10;12.60;;;8.10;99.90;;;;;;5065978;28;20201;-64
2024/01/22 06:03:00;;;;;;;12.63;12.20;;;8.10;99.90;;;;;;5067016;28;20918;-63
2024/01/22 06:05:27;;;;;;;13.13;12.63;;;8.20;99.90;;;;;;5073040;28;20249;-64
2024/01/22 06:07:55;;;;;;;12.33;11.93;;;8.30;99.90;;;;;;5071994;28;20645;-62
2024/01/22 06:10:21;;;;;;;12.60;12.20;;;8.30;99.90;;;;;;5067960;28;20211;-64
2024/01/22 06:12:48;;;;;;;12.77;12.37;;;8.30;99.90;;;;;;5071703;28;20199;-62
2024/01/22 06:15:15;;;;;;;13.80;13.30;;;8.30;99.90;;;;;;5067854;28;20763;-64
2024/01/22 06:17:42;;;;;;;13.37;12.87;;;8.30;99.90;;;;;;5069227;28;20581;-63
2024/01/22 06:20:10;;;;;;;13.07;12.57;;;8.30;99.90;;;;;;5070412;28;20211;-64
2024/01/22 06:22:37;;;;;;;12.80;12.40;;;8.50;99.90;;;;;;5065962;28;20200;-65
2024/01/22 06:25:06;;;;;;;14.33;13.73;;;8.40;99.90;;;;;;5066995;28;20225;-66
2024/01/22 06:27:33;;;;;;;13.80;13.30;;;8.50;99.90;;;;;;5067756;28;20611;-68
2024/01/22 06:30:01;;;;;;;13.33;12.83;;;8.60;99.90;;;;;;5068258;28;20207;-67
2024/01/22 06:32:28;;;;;;;13.13;12.67;;;8.70;99.90;;;;;;5079014;28;20218;-67
2024/01/22 06:34:55;;;;;;;13.93;13.43;;;8.70;99.90;;;;;;5077132;28;20219;-68
2024/01/22 06:37:24;;;;;;;13.00;12.50;;;8.80;99.90;;;;;;5074138;28;20231;-69
2024/01/22 06:39:52;;;;;;;13.30;12.80;;;8.90;99.90;;;;;;5071783;28;20203;-68
2024/01/22 06:42:20;;;;;;;13.63;13.13;;;9.20;99.90;;;;;;5066753;28;20262;-69
2024/01/22 06:44:47;;;;;;;14.13;13.53;;;9.30;99.90;;;;;;5069848;28;20234;-68
2024/01/22 06:47:14;;;;;;;13.50;13.00;;;9.30;99.90;;;;;;5067681;28;20195;-66
2024/01/22 06:49:40;;;;;;;13.30;12.80;;;9.40;99.90;;;;;;5066465;28;20218;-67
2024/01/22 06:52:07;;;;;;;13.00;12.50;;;9.40;99.90;;;;;;5070158;28;20697;-68
2024/01/22 06:54:34;;;;;;;13.87;13.37;;;9.50;99.90;;;;;;5066091;28;20235;-67
2024/01/22 06:57:01;;;;;;;13.17;12.70;;;9.60;99.90;;;;;;5068713;28;20708;-67
2024/01/22 06:59:30;;;;;;;14.80;14.30;;;9.70;99.90;;;;;;5063981;28;20667;-68
2024/01/22 07:01:58;;;;;;;13.80;13.30;;;9.70;99.90;;;;;;5070223;28;20207;-68
2024/01/22 07:04:25;;;;;;;14.07;13.57;;;9.80;99.90;;;;;;5068818;28;20204;-67
2024/01/22 07:06:52;;;;;;;13.90;13.40;;;9.90;99.90;;;;;;5079912;28;20207;-67
2024/01/22 07:09:18;;;;;;;14.43;13.93;;;9.90;99.90;;;;;;5079404;28;20217;-66
2024/01/22 07:11:46;;;;;;;16.07;15.47;;;10.00;99.90;;;;;;5083140;28;20278;-71
2024/01/22 07:14:13;;;;;;;13.67;13.17;;;10.00;99.90;;;;;;5085806;28;20237;-70
2024/01/22 07:16:41;;;;;;;14.07;13.57;;;10.10;99.90;;;;;;5081878;28;20227;-67
2024/01/22 07:19:08;;;;;;;15.87;15.27;;;10.10;99.90;;;;;;5080299;28;20207;-69
2024/01/22 07:21:35;;;;;;;16.10;15.47;;;10.10;99.90;;;;;;5076242;28;20271;-67
2024/01/22 07:24:02;;;;;;;13.60;13.10;;;10.00;99.90;;;;;;5083213;28;20245;-67
2024/01/22 07:26:29;;;;;;;14.73;14.23;;;10.00;99.90;;;;;;5082975;28;20227;-67
2024/01/22 07:28:55;;;;;;;15.37;14.80;;;10.00;99.90;;;;;;5081235;28;20208;-68
2024/01/22 07:31:22;;;;;;;14.67;14.17;;;10.00;99.90;;;;;;5081811;28;20211;-67
2024/01/22 07:33:50;;;;;;;15.73;15.20;;;10.00;99.90;;;;;;5079631;28;20211;-66
2024/01/22 07:36:17;;;;;;;14.93;14.43;;;10.10;99.90;;;;;;5079960;28;20230;-70
2024/01/22 07:38:45;;;;;;;14.23;13.73;;;10.10;99.90;;;;;;5086735;28;20257;-69
2024/01/22 07:41:11;;;;;;;13.90;13.40;;;10.20;99.90;;;;;;5081633;28;20203;-68
2024/01/22 07:43:38;;;;;;;15.53;15.00;;;10.20;99.90;;;;;;5079728;28;20279;-67
2024/01/22 07:46:05;;;;;;;15.53;15.03;;;10.30;99.90;;;;;;5080364;28;20231;-69
2024/01/22 07:48:32;;;;;;;13.90;13.40;;;10.40;99.90;;;;;;5078246;28;20223;-66
2024/01/22 07:51:00;;;;;;;14.43;13.93;;;10.30;99.90;;;;;;5080925;28;20206;-69
2024/01/22 07:53:27;;;;;;;14.27;13.73;;;10.40;99.90;;;;;;5063749;28;20208;-69
2024/01/22 07:55:53;;;;;;;13.50;13.00;;;10.40;99.90;;;;;;5070152;28;20237;-67
2024/01/22 07:58:20;;;;;;;14.13;13.63;;;10.40;99.90;;;;;;5068266;28;20226;-67
2024/01/22 08:00:47;;;;;;;13.67;13.17;;;10.40;99.90;;;;;;5069320;28;20222;-69
2024/01/22 08:03:13;;;;;;;13.40;12.90;;;10.50;99.90;;;;;;5068564;28;20214;-68
2024/01/22 08:05:41;;;;;;;12.77;12.30;;;10.60;99.90;;;;;;5071221;28;20243;-68
2024/01/22 08:08:10;;;;;;;13.67;13.17;;;10.60;99.90;;;;;;5070794;28;20253;-67
2024/01/22 08:10:37;;;;;;;12.40;12.00;;;10.60;99.90;;;;;;5068864;28;20261;-68
2024/01/22 08:13:04;;;;;;;12.43;12.03;;;10.60;99.90;;;;;;5061221;28;20620;-68
2024/01/22 08:15:30;;;;;;;11.43;11.03;;;10.70;99.90;;;;;;5069010;28;20272;-68
2024/01/22 08:17:57;;;;;;;12.23;11.83;;;10.70;99.90;;;;;;5066943;28;20234;-67
2024/01/22 08:20:24;;;;;;;12.10;11.70;;;10.80;99.90;;;;;;5066293;28;20214;-67
2024/01/22 08:22:51;;;;;;;11.70;11.30;;;10.80;99.90;;;;;;5064748;28;20199;-67
2024/01/22 08:25:27;;;;;;;11.90;11.50;;;10.80;99.90;;;;;;5069062;28;20220;-67
2024/01/22 08:27:53;;;;;;;11.30;10.90;;;10.90;99.90;;;;;;5066285;28;20238;-68
2024/01/22 08:30:21;;;;;;;12.00;11.60;;;10.80;99.90;;;;;;5066661;28;20586;-67
2024/01/22 08:32:48;;;;;;;11.97;11.57;;;10.90;99.90;;;;;;5070004;28;20207;-68
2024/01/22 08:35:15;;;;;;;12.00;11.60;;;10.90;99.90;;;;;;5067781;28;20226;-68
2024/01/22 08:37:45;;;;;;;12.47;12.07;;;10.90;99.90;;;;;;5070181;28;20276;-67
2024/01/22 08:40:16;;;;;;;11.47;11.07;;;11.00;99.90;;;;;;5069298;28;20211;-66
2024/01/22 08:42:45;;;;;;;11.80;11.40;;;11.00;99.90;;;;;;5069386;28;20681;-67
2024/01/22 08:45:11;;;;;;;13.00;12.53;;;11.00;99.90;;;;;;5065383;28;20330;-66
2024/01/22 08:47:38;;;;;;;12.07;11.67;;;11.00;99.90;;;;;;5070887;28;20206;-66
2024/01/22 08:50:05;;;;;;;11.87;11.47;;;11.10;99.90;;;;;;5072687;28;20210;-69
2024/01/22 08:52:32;;;;;;;11.93;11.53;;;11.20;99.90;;;;;;5067430;28;20298;-68
2024/01/22 08:54:59;;;;;;;12.10;11.70;;;11.30;99.90;;;;;;5070973;28;20701;-66
2024/01/22 08:57:26;;;;;;;11.90;11.50;;;11.30;99.90;;;;;;5071780;28;20701;-70
2024/01/22 08:59:54;;;;;;;12.47;12.07;;;11.40;99.90;;;;;;5074229;28;20682;-70
2024/01/22 09:02:20;;;;;;;13.30;12.87;;;11.50;99.90;;;;;;5079250;28;20203;-67
2024/01/22 09:04:47;;;;;;;12.90;12.50;;;11.50;99.90;;;;;;5079566;28;20301;-68
2024/01/22 09:07:14;;;;;;;13.77;13.27;;;11.60;99.90;;;;;;5079749;28;20213;-67
2024/01/22 09:09:41;;;;;;;14.17;13.67;;;11.60;99.90;;;;;;5080984;28;20196;-69
2024/01/22 09:12:09;;;;;;;14.10;13.60;;;11.70;99.90;;;;;;5083026;28;20209;-69
2024/01/22 09:14:35;;;;;;;14.50;14.00;;;11.80;99.90;;;;;;5079697;28;20230;-68
2024/01/22 09:17:04;;;;;;;14.10;13.60;;;11.80;99.90;;;;;;5079646;28;20229;-70
2024/01/22 09:19:31;;;;;;;13.77;13.27;;;11.80;99.90;;;;;;5076921;28;20569;-71
2024/01/22 09:21:57;;;;;;;13.37;12.97;;;11.80;99.90;;;;;;5077338;28;20219;-69
2024/01/22 09:24:24;;;;;;;13.90;13.40;;;11.90;99.90;;;;;;5071503;28;20211;-67
2024/01/22 09:26:51;;;;;;;14.10;13.60;;;11.90;99.90;;;;;;5075492;28;20295;-69
2024/01/22 09:29:17;;;;;;;14.07;13.57;;;11.90;99.90;;;;;;5072876;28;20200;-68
2024/01/22 09:31:44;;;;;;;14.00;13.50;;;11.80;99.90;;;;;;5072013;28;20273;-68
2024/01/22 09:34:12;;;;;;;13.87;13.37;;;11.90;99.90;;;;;;5076892;28;20216;-67
2024/01/22 09:36:39;;;;;;;13.67;13.17;;;11.90;99.90;;;;;;5074114;28;20211;-67
2024/01/22 09:39:07;;;;;;;14.40;13.90;;;11.90;99.90;;;;;;5076239;28;20215;-68
2024/01/22 09:41:34;;;;;;;14.73;14.23;;;12.00;99.90;;;;;;5075635;28;20211;-66
2024/01/22 09:44:01;;;;;;;13.63;13.17;;;12.00;99.90;;;;;;5075550;28;20203;-68
2024/01/22 09:46:29;;;;;;;13.00;12.60;;;12.10;99.90;;;;;;5073553;28;20250;-66
2024/01/22 09:48:55;;;;;;;13.17;12.70;;;12.10;99.90;;;;;;5080994;28;20291;-66
2024/01/22 09:51:24;;;;;;;13.03;12.63;;;12.20;99.90;;;;;;5070310;28;20411;-67
2024/01/22 09:53:52;;;;;;;12.53;12.13;;;12.30;99.90;;;;;;5083319;28;20204;-70
2024/01/22 09:56:20;;;;;;;12.20;11.80;;;12.30;99.90;;;;;;5081042;28;20231;-69
2024/01/22 09:58:49;;;;;;;12.53;12.13;;;12.30;99.90;;;;;;5076728;28;20227;-72
2024/01/22 10:01:16;;;;;;;12.70;12.30;;;12.40;99.90;;;;;;5079666;28;20203;-68
2024/01/22 10:03:45;;;;;;;12.53;12.10;;;12.50;99.90;;;;;;5070392;28;20204;-67
2024/01/22 10:06:14;;;;;;;12.20;11.80;;;12.50;99.90;;;;;;5072510;28;20310;-68
2024/01/22 10:08:42;;;;;;;12.00;11.60;;;12.60;99.90;;;;;;5072005;28;20195;-68
2024/01/22 10:11:09;;;;;;;11.37;10.97;;;12.70;99.90;;;;;;5071676;28;20207;-67
2024/01/22 10:13:50;;;;;;;11.97;11.57;;;12.70;99.90;;;;;;5067453;28;20206;-67
2024/01/22 10:16:17;;;;;;;12.10;11.70;;;12.80;99.90;;;;;;5073380;28;20342;-68
2024/01/22 10:18:57;;;;;;;11.93;11.53;;;12.80;99.90;;;;;;5075157;28;20219;-69
2024/01/22 10:21:24;;;;;;;11.40;11.00;;;12.90;99.90;;;;;;5075812;28;20199;-69
2024/01/22 10:23:58;;;;;;;11.77;11.38;;;12.90;99.90;;;;;;5074641;28;20207;-67
2024/01/22 10:26:25;;;;;;;11.93;11.53;;;12.90;99.90;;;;;;5073774;28;20241;-67
2024/01/22 10:28:52;;;;;;;12.20;11.80;;;12.90;99.90;;;;;;5074062;28;20196;-68
2024/01/22 10:31:19;;;;;;;11.27;10.88;;;12.90;99.90;;;;;;5074377;28;20207;-67
2024/01/22 10:33:48;;;;;;;11.77;11.37;;;13.00;99.90;;;;;;5078899;28;20218;-69
2024/01/22 10:36:16;;;;;;;12.57;12.17;;;13.10;99.90;;;;;;5076218;28;20231;-67
2024/01/22 10:38:44;;;;;;;11.70;11.30;;;13.10;99.90;;;;;;5074832;28;20224;-67
2024/01/22 10:41:18;;;;;;;12.40;12.00;;;13.20;99.90;;;;;;5078799;28;20211;-68
2024/01/22 10:43:45;;;;;;;12.80;12.40;;;13.20;99.90;;;;;;5084954;28;20230;-68
2024/01/22 10:46:13;;;;;;;12.90;12.40;;;13.20;99.90;;;;;;5085081;28;20242;-69
2024/01/22 10:48:41;;;;;;;12.43;12.03;;;13.20;99.90;;;;;;5077204;28;20204;-69
2024/01/22 10:51:09;;;;;;;12.67;12.27;;;13.30;99.90;;;;;;5072295;28;20290;-69
2024/01/22 10:53:37;;;;;;;13.03;12.63;;;13.30;99.90;;;;;;5072770;28;20285;-68
2024/01/22 10:56:07;;;;;;;12.80;12.40;;;13.30;99.90;;;;;;5072255;28;20775;-70
2024/01/22 10:58:41;;;;;;;13.03;12.63;;;13.30;99.90;;;;;;5071755;28;20230;-69
2024/01/22 11:01:13;;;;;;;12.77;12.37;;;13.30;99.90;;;;;;5069896;28;20199;-70
2024/01/22 11:03:45;;;;;;;16.03;15.47;;;13.30;99.90;;;;;;5072187;28;20286;-69
2024/01/22 11:06:15;;;;;;;13.30;12.87;;;13.20;99.90;;;;;;5070679;28;20311;-70
2024/01/22 11:08:43;;;;;;;12.90;12.50;;;13.20;99.90;;;;;;5067126;28;20222;-67
2024/01/22 11:11:12;;;;;;;13.33;12.93;;;13.20;99.90;;;;;;5071724;28;20203;-70
2024/01/22 11:13:40;;;;;;;14.27;13.77;;;13.20;99.90;;;;;;5073227;28;20203;-67
2024/01/22 11:16:07;;;;;;;14.20;13.70;;;13.10;99.90;;;;;;5073810;28;20584;-68
2024/01/22 11:18:34;;;;;;;20.97;20.17;;;13.10;99.90;;;;;;5074051;28;20286;-67
2024/01/22 11:21:19;;;;;;;13.07;12.67;;;13.10;99.90;;;;;;5072777;28;20226;-68
2024/01/22 11:24:05;;;;;;;13.30;12.90;;;13.10;99.90;;;;;;5072152;28;20196;-66
2024/01/22 11:26:31;;;;;;;15.33;14.83;;;13.10;99.90;;;;;;5069321;28;20223;-69
2024/01/22 11:29:09;;;;;;;15.53;15.03;;;13.20;99.90;;;;;;5072289;28;20203;-67
2024/01/22 11:31:38;;;;;;;14.20;13.70;;;13.10;99.90;;;;;;5072783;28;20286;-68
2024/01/22 11:34:05;;;;;;;14.77;14.27;;;13.10;99.90;;;;;;5065447;28;20212;-68
2024/01/22 11:36:52;;;;;;;14.07;13.57;;;13.10;99.90;;;;;;5060671;28;20310;-68
2024/01/22 11:39:43;;;;;;;13.20;12.80;;;13.20;99.90;;;;;;5069082;28;20219;-68
2024/01/22 11:42:29;;;;;;;11.80;11.40;;;13.30;99.90;;;;;;5064981;28;20196;-69
2024/01/22 11:45:06;;;;;;;13.30;12.90;;;13.20;99.90;;;;;;5067394;28;20235;-68
2024/01/22 11:47:33;;;;;;;13.30;12.90;;;13.20;99.90;;;;;;5068917;28;20199;-67
2024/01/22 11:50:04;;;;;;;14.03;13.53;;;13.30;99.90;;;;;;5068705;28;20203;-68
2024/01/22 11:52:31;;;;;;;13.23;12.83;;;13.30;99.90;;;;;;5070900;28;20207;-67
2024/01/22 11:55:00;;;;;;;13.40;13.00;;;13.40;99.90;;;;;;5066271;28;20227;-68
2024/01/22 11:57:29;;;;;;;13.37;12.97;;;13.40;99.90;;;;;;5063391;28;20207;-67
2024/01/22 12:00:04;;;;;;;15.00;14.40;;;13.30;99.90;;;;;;5064700;28;20238;-69
2024/01/22 12:02:31;;;;;;;14.27;13.77;;;13.30;99.90;;;;;;5067892;28;20199;-66
2024/01/22 12:05:06;;;;;;;18.05;17.45;;;13.20;99.90;;;;;;5066966;28;20241;-69
2024/01/22 12:07:34;;;;;;;15.33;14.83;;;13.20;99.90;;;;;;5067654;28;20764;-68
2024/01/22 12:10:02;;;;;;;13.65;13.15;;;13.30;99.90;;;;;;5067514;28;20305;-70
2024/01/22 12:12:29;;;;;;;12.33;11.93;;;13.20;99.90;;;;;;5069889;28;20213;-67
2024/01/22 12:14:56;;;;;;;13.27;12.83;;;13.30;99.90;;;;;;5068520;28;20227;-67
2024/01/22 12:17:25;;;;;;;12.73;12.32;;;13.30;99.90;;;;;;5065051;28;20229;-67
2024/01/22 12:19:54;;;;;;;13.07;12.57;;;13.30;99.90;;;;;;5064550;28;20261;-69
2024/01/22 12:22:22;;;;;;;12.30;11.90;;;13.30;99.90;;;;;;5068414;28;20214;-67
2024/01/22 12:25:06;;;;;;;12.80;12.40;;;13.30;99.90;;;;;;5068504;28;20250;-70
2024/01/22 12:27:33;;;;;;;13.73;13.23;;;13.30;99.90;;;;;;5066430;28;20273;-68
2024/01/22 12:30:05;;;;;;;14.13;13.63;;;13.30;99.90;;;;;;5065506;28;20264;-70
2024/01/22 12:32:36;;;;;;;13.57;13.07;;;13.30;99.90;;;;;;5069142;28;20540;-71
2024/01/22 12:35:03;;;;;;;14.90;14.40;;;13.20;99.90;;;;;;5066526;28;20238;-67